createdAt,value
2018-09-19T00:01:26.093Z,14.30
2018-09-19T00:03:54.655Z,14.30
2018-09-19T00:06:23.159Z,14.20
2018-09-19T00:08:52.498Z,14.20
2018-09-19T00:11:22.429Z,14.20
2018-09-19T00:13:50.995Z,14.20
2018-09-19T00:16:19.479Z,14.20
2018-09-19T00:18:47.957Z,14.30
2018-09-19T00:21:16.488Z,14.30
2018-09-19T00:23:44.954Z,14.30
2018-09-19T00:26:13.447Z,14.30
2018-09-19T00:28:41.962Z,14.30
2018-09-19T00:31:10.464Z,14.20
2018-09-19T00:33:39.076Z,14.10
2018-09-19T00:36:07.624Z,14.20
2018-09-19T00:38:36.108Z,14.10
2018-09-19T00:41:04.615Z,14.10
2018-09-19T00:43:33.118Z,14.10
2018-09-19T00:46:01.668Z,14.00
2018-09-19T00:48:30.267Z,14.10
2018-09-19T00:50:58.838Z,14.10
2018-09-19T00:53:27.331Z,14.10
2018-09-19T00:55:55.814Z,14.10
2018-09-19T00:58:24.300Z,14.10
2018-09-19T01:00:52.843Z,14.10
2018-09-19T01:03:21.832Z,14.10
2018-09-19T01:05:50.336Z,14.10
2018-09-19T01:08:18.788Z,14.20
2018-09-19T01:10:47.327Z,14.20
2018-09-19T01:13:15.818Z,14.30
2018-09-19T01:15:44.344Z,14.30
2018-09-19T01:18:12.847Z,14.20
2018-09-19T01:20:41.403Z,14.20
2018-09-19T01:23:09.890Z,14.10
2018-09-19T01:25:38.403Z,14.10
2018-09-19T01:28:06.935Z,14.20
2018-09-19T01:30:35.454Z,14.10
2018-09-19T01:33:03.966Z,14.10
2018-09-19T01:35:32.506Z,14.00
2018-09-19T01:38:01.071Z,14.10
2018-09-19T01:40:30.190Z,14.10
2018-09-19T01:42:58.782Z,14.00
2018-09-19T01:45:27.460Z,14.00
2018-09-19T01:47:55.997Z,13.90
2018-09-19T01:50:24.590Z,13.80
2018-09-19T01:52:53.139Z,13.90
2018-09-19T01:55:21.620Z,13.80
2018-09-19T01:57:50.178Z,13.70
2018-09-19T02:00:18.759Z,13.70
2018-09-19T02:02:47.289Z,13.90
2018-09-19T02:05:16.196Z,13.80
2018-09-19T02:07:44.810Z,13.80
2018-09-19T02:10:13.379Z,13.70
2018-09-19T02:12:41.886Z,13.70
2018-09-19T02:15:10.471Z,13.70
2018-09-19T02:17:38.942Z,13.70
2018-09-19T02:20:07.484Z,13.70
2018-09-19T02:22:36.019Z,13.80
2018-09-19T02:25:04.579Z,13.80
2018-09-19T02:27:33.142Z,13.90
2018-09-19T02:30:01.626Z,14.00
2018-09-19T02:32:30.250Z,13.90
2018-09-19T02:34:58.799Z,13.90
2018-09-19T02:37:27.291Z,13.90
2018-09-19T02:39:55.779Z,13.90
2018-09-19T02:42:24.343Z,13.90
2018-09-19T02:44:52.832Z,13.90
2018-09-19T02:47:21.316Z,13.90
2018-09-19T02:49:49.833Z,13.90
2018-09-19T02:52:18.664Z,13.90
2018-09-19T02:54:47.242Z,13.90
2018-09-19T02:57:15.939Z,13.80
2018-09-19T02:59:44.570Z,14.00
2018-09-19T03:02:13.179Z,13.90
2018-09-19T03:07:10.328Z,13.80
2018-09-19T03:09:38.860Z,13.70
2018-09-19T03:12:07.442Z,13.70
2018-09-19T03:14:35.996Z,13.80
2018-09-19T03:17:04.551Z,13.70
2018-09-19T03:19:33.051Z,13.70
2018-09-19T03:22:01.730Z,13.60
2018-09-19T03:24:31.452Z,13.60
2018-09-19T03:26:59.960Z,13.60
2018-09-19T03:29:28.495Z,13.50
2018-09-19T03:31:57.030Z,13.50
2018-09-19T03:34:25.552Z,13.40
2018-09-19T03:36:54.101Z,13.40
2018-09-19T03:39:22.619Z,13.50
2018-09-19T03:41:51.104Z,13.70
2018-09-19T03:44:19.624Z,13.50
2018-09-19T03:46:48.283Z,13.50
2018-09-19T03:49:16.897Z,13.40
2018-09-19T03:51:45.650Z,13.30
2018-09-19T03:54:14.199Z,13.40
2018-09-19T03:59:33.352Z,13.30
2018-09-19T04:02:01.873Z,13.30
2018-09-19T04:04:30.394Z,13.20
2018-09-19T04:06:58.950Z,13.20
2018-09-19T04:09:27.494Z,13.20
2018-09-19T04:11:55.959Z,13.20
2018-09-19T04:14:24.475Z,13.20
2018-09-19T04:16:52.996Z,13.20
2018-09-19T04:19:21.484Z,13.20
2018-09-19T04:21:51.770Z,13.20
2018-09-19T04:24:20.261Z,13.10
2018-09-19T04:26:48.766Z,13.10
2018-09-19T04:29:17.578Z,13.10
2018-09-19T04:31:46.135Z,13.00
2018-09-19T04:34:15.767Z,13.00
2018-09-19T04:36:44.674Z,13.10
2018-09-19T04:39:13.868Z,13.10
2018-09-19T04:41:42.488Z,13.10
2018-09-19T04:44:11.277Z,13.00
2018-09-19T04:46:40.656Z,13.00
2018-09-19T04:49:09.799Z,13.10
2018-09-19T04:51:39.583Z,13.10
2018-09-19T04:54:08.608Z,13.10
2018-09-19T04:56:37.760Z,13.10
2018-09-19T04:59:06.565Z,13.00
2018-09-19T05:01:35.262Z,13.00
2018-09-19T05:04:04.066Z,13.00
2018-09-19T05:06:32.804Z,12.90
2018-09-19T05:09:01.532Z,12.90
2018-09-19T05:11:30.289Z,12.90
2018-09-19T05:14:00.287Z,12.90
2018-09-19T05:16:28.896Z,12.90
2018-09-19T05:18:57.569Z,12.90
2018-09-19T05:21:26.217Z,12.90
2018-09-19T05:23:54.927Z,12.90
2018-09-19T05:26:23.504Z,12.90
2018-09-19T05:28:52.077Z,13.00
2018-09-19T05:31:20.608Z,13.10
2018-09-19T05:33:49.287Z,13.20
2018-09-19T05:36:17.983Z,13.10
2018-09-19T05:38:46.663Z,13.20
2018-09-19T05:41:15.209Z,13.20
2018-09-19T05:43:43.781Z,13.20
2018-09-19T05:46:12.573Z,13.20
2018-09-19T05:48:41.162Z,13.20
2018-09-19T05:51:09.869Z,13.20
2018-09-19T05:53:38.576Z,13.60
2018-09-19T05:56:07.213Z,14.00
2018-09-19T05:58:35.929Z,14.20
2018-09-19T06:01:05.241Z,14.20
2018-09-19T06:03:33.944Z,13.90
2018-09-19T06:06:02.689Z,13.70
2018-09-19T06:08:31.371Z,13.70
2018-09-19T06:11:00.255Z,13.70
2018-09-19T06:13:29.295Z,13.70
2018-09-19T06:15:58.110Z,13.70
2018-09-19T06:18:26.842Z,13.70
2018-09-19T06:20:55.522Z,13.80
2018-09-19T06:23:24.157Z,13.90
2018-09-19T06:25:52.955Z,13.90
2018-09-19T06:28:22.074Z,14.00
2018-09-19T06:30:50.763Z,14.10
2018-09-19T06:33:19.475Z,14.50
2018-09-19T06:35:48.405Z,14.40
2018-09-19T06:38:17.334Z,14.40
2018-09-19T06:40:46.319Z,14.40
2018-09-19T06:43:15.145Z,14.40
2018-09-19T06:45:44.020Z,14.60
2018-09-19T06:48:12.978Z,14.60
2018-09-19T06:50:41.895Z,14.70
2018-09-19T06:53:10.735Z,15.10
2018-09-19T06:55:39.773Z,15.70
2018-09-19T06:58:08.511Z,16.10
2018-09-19T07:00:37.585Z,16.50
2018-09-19T07:03:06.163Z,16.40
2018-09-19T07:05:35.160Z,16.40
2018-09-19T07:08:04.094Z,16.40
2018-09-19T07:10:33.212Z,16.50
2018-09-19T07:13:02.035Z,16.60
2018-09-19T07:15:30.854Z,16.70
2018-09-19T07:17:59.792Z,16.60
2018-09-19T07:20:28.888Z,16.70
2018-09-19T07:22:57.644Z,17.00
2018-09-19T07:25:26.593Z,17.20
2018-09-19T07:27:55.469Z,17.60
2018-09-19T07:30:24.480Z,18.10
2018-09-19T07:45:52.666Z,18.70
2018-09-19T07:48:21.448Z,19.10
2018-09-19T07:50:50.312Z,20.50
2018-09-19T07:53:19.049Z,21.10
2018-09-19T07:55:47.952Z,21.60
2018-09-19T07:58:16.939Z,21.80
2018-09-19T08:00:46.018Z,21.70
2018-09-19T08:03:17.201Z,21.70
2018-09-19T08:05:45.897Z,22.40
2018-09-19T08:08:14.902Z,21.50
2018-09-19T08:10:43.487Z,21.50
2018-09-19T08:13:12.355Z,22.60
2018-09-19T08:15:41.160Z,23.50
2018-09-19T08:18:09.988Z,24.00
2018-09-19T08:20:38.843Z,23.70
2018-09-19T08:23:08.675Z,23.70
2018-09-19T08:25:37.485Z,23.80
2018-09-19T08:28:06.645Z,23.60
2018-09-19T08:30:35.731Z,24.00
2018-09-19T08:33:04.444Z,24.40
2018-09-19T08:35:33.579Z,24.70
2018-09-19T08:38:02.613Z,25.20
2018-09-19T08:40:31.400Z,25.40
2018-09-19T08:43:00.216Z,25.80
2018-09-19T08:45:29.183Z,25.90
2018-09-19T08:47:58.349Z,26.00
2018-09-19T08:50:27.270Z,26.20
2018-09-19T08:52:56.161Z,26.40
2018-09-19T08:55:25.219Z,26.70
2018-09-19T08:57:54.147Z,27.00
2018-09-19T09:00:22.961Z,26.80
2018-09-19T09:02:52.218Z,26.60
2018-09-19T09:05:21.588Z,26.90
2018-09-19T09:07:50.671Z,26.80
2018-09-19T09:10:19.751Z,27.30
2018-09-19T09:12:48.867Z,27.70
2018-09-19T09:15:19.148Z,27.80
2018-09-19T09:17:48.225Z,27.70
2018-09-19T09:20:17.340Z,28.00
2018-09-19T09:22:46.621Z,28.00
2018-09-19T09:25:15.579Z,28.00
2018-09-19T09:27:44.558Z,28.20
2018-09-19T09:30:13.718Z,28.20
2018-09-19T09:32:42.819Z,28.00
2018-09-19T09:35:11.996Z,28.30
2018-09-19T09:37:41.083Z,28.20
2018-09-19T09:40:10.408Z,28.50
2018-09-19T09:42:39.779Z,28.90
2018-09-19T09:45:08.782Z,27.80
2018-09-19T09:47:37.761Z,28.50
2018-09-19T09:50:09.055Z,29.00
2018-09-19T09:52:38.309Z,29.40
2018-09-19T09:55:07.822Z,29.00
2018-09-19T09:57:37.012Z,29.40
2018-09-19T10:00:06.591Z,30.00
2018-09-19T10:02:36.210Z,29.90
2018-09-19T10:05:05.688Z,30.00
2018-09-19T10:07:34.901Z,30.10
2018-09-19T10:10:04.663Z,30.00
2018-09-19T10:12:34.075Z,30.00
2018-09-19T10:15:03.415Z,30.20
2018-09-19T10:17:36.136Z,30.30
2018-09-19T10:20:05.494Z,30.50
2018-09-19T10:22:34.963Z,30.70
2018-09-19T10:25:04.332Z,30.80
2018-09-19T10:27:33.362Z,30.80
2018-09-19T10:30:02.287Z,30.50
2018-09-19T10:32:40.210Z,30.70
2018-09-19T10:35:10.389Z,30.70
2018-09-19T10:37:39.840Z,30.60
2018-09-19T10:40:09.093Z,30.70
2018-09-19T10:42:37.854Z,30.80
2018-09-19T10:45:07.779Z,30.60
2018-09-19T10:50:16.670Z,30.60
2018-09-19T10:52:46.058Z,30.90
2018-09-19T10:55:15.339Z,31.20
2018-09-19T10:57:44.461Z,31.00
2018-09-19T11:00:13.661Z,31.20
2018-09-19T11:02:43.047Z,31.20
2018-09-19T11:05:16.357Z,31.30
2018-09-19T11:07:50.375Z,31.60
2018-09-19T11:10:19.874Z,31.60
2018-09-19T11:12:49.813Z,31.50
2018-09-19T11:15:19.016Z,31.10
2018-09-19T11:17:48.508Z,31.10
2018-09-19T11:20:32.425Z,31.50
2018-09-19T11:23:01.442Z,31.80
2018-09-19T11:25:30.786Z,31.90
2018-09-19T11:27:59.858Z,31.70
2018-09-19T11:30:29.778Z,31.70
2018-09-19T11:32:59.134Z,31.70
2018-09-19T11:35:28.600Z,31.70
2018-09-19T11:37:58.013Z,31.70
2018-09-19T11:40:27.253Z,31.60
2018-09-19T11:42:56.566Z,31.70
2018-09-19T11:45:26.066Z,31.60
2018-09-19T11:47:56.483Z,31.50
2018-09-19T11:50:25.902Z,31.60
2018-09-19T11:52:54.983Z,31.70
2018-09-19T11:55:24.577Z,31.70
2018-09-19T11:57:54.053Z,31.70
2018-09-19T12:00:23.332Z,31.60
2018-09-19T12:02:52.440Z,31.60
2018-09-19T12:05:21.650Z,31.30
2018-09-19T12:07:51.509Z,31.60
2018-09-19T12:10:20.526Z,31.60
2018-09-19T12:12:49.707Z,31.70
2018-09-19T12:15:19.126Z,31.70
2018-09-19T12:17:48.238Z,31.80
2018-09-19T12:20:17.579Z,31.80
2018-09-19T12:22:47.136Z,31.70
2018-09-19T12:25:16.594Z,31.60
2018-09-19T12:27:45.850Z,31.70
2018-09-19T12:30:15.423Z,31.70
2018-09-19T12:32:44.827Z,31.70
2018-09-19T12:35:14.528Z,31.80
2018-09-19T12:37:43.643Z,31.70
2018-09-19T12:40:12.901Z,31.80
2018-09-19T12:42:43.221Z,31.80
2018-09-19T12:45:12.596Z,32.00
2018-09-19T12:47:41.983Z,32.10
2018-09-19T12:50:10.949Z,31.50
2018-09-19T12:52:42.212Z,31.50
2018-09-19T12:55:11.571Z,31.60
2018-09-19T12:57:40.835Z,31.50
2018-09-19T13:00:10.000Z,31.50
2018-09-19T13:02:44.573Z,31.80
2018-09-19T13:07:53.969Z,31.60
2018-09-19T13:10:40.037Z,31.80
2018-09-19T13:13:08.992Z,31.70
2018-09-19T13:15:37.732Z,31.70
2018-09-19T13:18:09.028Z,31.60
2018-09-19T13:20:40.466Z,31.50
2018-09-19T13:23:09.208Z,31.70
2018-09-19T13:25:37.982Z,31.80
2018-09-19T13:28:10.684Z,31.80
2018-09-19T13:30:40.525Z,31.80
2018-09-19T13:33:09.520Z,31.80
2018-09-19T13:35:38.494Z,31.80
2018-09-19T13:38:07.459Z,31.80
2018-09-19T13:40:36.655Z,31.80
2018-09-19T13:43:05.461Z,31.80
2018-09-19T13:45:34.216Z,31.50
2018-09-19T13:48:03.144Z,31.90
2018-09-19T13:50:44.046Z,31.80
2018-09-19T13:55:56.251Z,31.60
2018-09-19T13:58:25.862Z,31.60
2018-09-19T14:00:54.836Z,31.60
2018-09-19T14:03:23.952Z,31.70
2018-09-19T14:05:52.944Z,31.70
2018-09-19T14:08:21.588Z,31.50
2018-09-19T14:10:50.410Z,31.10
2018-09-19T14:13:19.409Z,31.20
2018-09-19T14:15:48.108Z,31.30
2018-09-19T14:18:17.045Z,31.30
2018-09-19T14:20:46.517Z,31.10
2018-09-19T14:23:15.462Z,30.90
2018-09-19T14:25:44.401Z,30.70
2018-09-19T14:28:14.628Z,30.90
2018-09-19T14:30:43.803Z,30.90
2018-09-19T14:33:13.751Z,30.40
2018-09-19T14:35:42.812Z,30.10
2018-09-19T14:38:12.345Z,30.30
2018-09-19T14:40:41.449Z,30.50
2018-09-19T14:43:10.342Z,30.40
2018-09-19T14:45:39.144Z,30.20
2018-09-19T14:48:08.104Z,30.10
2018-09-19T14:50:37.121Z,30.20
2018-09-19T14:53:06.319Z,30.30
2018-09-19T14:55:41.245Z,30.10
2018-09-19T14:58:10.690Z,30.10
2018-09-19T15:00:41.094Z,30.10
2018-09-19T15:03:11.789Z,30.00
2018-09-19T15:05:41.865Z,29.90
2018-09-19T15:08:35.341Z,29.80
2018-09-19T15:11:22.081Z,29.80
2018-09-19T15:13:51.086Z,29.60
2018-09-19T15:20:46.417Z,29.20
2018-09-19T15:27:16.992Z,28.90
2018-09-19T15:29:46.735Z,28.80
2018-09-19T15:32:16.179Z,28.80
2018-09-19T15:34:45.547Z,28.60
2018-09-19T15:37:14.786Z,28.40
2018-09-19T15:42:52.913Z,28.10
2018-09-19T15:48:39.456Z,27.90
2018-09-19T15:51:21.639Z,27.80
2018-09-19T15:53:57.596Z,27.70
2018-09-19T15:56:27.001Z,27.50
2018-09-19T15:58:57.938Z,27.20
2018-09-19T16:01:27.848Z,27.20
2018-09-19T16:09:57.639Z,26.80
2018-09-19T16:12:26.699Z,26.60
2018-09-19T16:14:56.751Z,26.40
2018-09-19T16:17:29.755Z,26.30
2018-09-19T16:23:04.860Z,26.00
2018-09-19T16:25:34.101Z,25.80
2018-09-19T16:28:03.077Z,25.60
2018-09-19T16:30:32.104Z,25.50
2018-09-19T16:33:00.934Z,25.30
2018-09-19T16:35:29.739Z,25.20
2018-09-19T16:37:58.685Z,25.00
2018-09-19T16:40:27.707Z,24.90
2018-09-19T16:42:56.700Z,24.70
2018-09-19T16:45:25.802Z,24.60
2018-09-19T16:47:54.788Z,24.50
2018-09-19T16:50:23.960Z,24.30
2018-09-19T16:52:53.188Z,24.20
2018-09-19T16:55:21.939Z,24.00
2018-09-19T16:57:51.273Z,23.90
2018-09-19T17:00:20.640Z,23.80
2018-09-19T17:02:49.758Z,23.70
2018-09-19T17:05:18.822Z,23.60
2018-09-19T17:07:48.065Z,23.40
2018-09-19T17:10:17.251Z,23.30
2018-09-19T17:12:46.310Z,23.20
2018-09-19T17:15:15.744Z,23.00
2018-09-19T17:17:44.957Z,22.90
2018-09-19T17:20:14.601Z,22.80
2018-09-19T17:22:43.647Z,22.60
2018-09-19T17:25:12.557Z,22.40
2018-09-19T17:27:41.384Z,22.30
2018-09-19T17:30:10.945Z,22.10
2018-09-19T17:35:19.772Z,21.90
2018-09-19T17:37:48.629Z,21.80
2018-09-19T17:40:17.230Z,21.60
2018-09-19T17:42:46.865Z,21.60
2018-09-19T17:45:15.442Z,21.50
2018-09-19T17:47:43.965Z,21.40
2018-09-19T17:50:12.561Z,21.30
2018-09-19T17:52:41.394Z,21.20
2018-09-19T17:55:09.999Z,21.20
2018-09-19T17:57:38.657Z,21.10
2018-09-19T18:00:08.829Z,21.10
2018-09-19T18:02:37.441Z,20.90
2018-09-19T18:05:07.083Z,20.80
2018-09-19T18:07:35.743Z,20.80
2018-09-19T18:10:04.917Z,20.60
2018-09-19T18:12:37.558Z,20.50
2018-09-19T18:15:06.414Z,20.40
2018-09-19T18:17:35.268Z,20.40
2018-09-19T18:20:03.876Z,20.30
2018-09-19T18:22:32.428Z,20.20
2018-09-19T18:25:01.049Z,20.10
2018-09-19T18:27:29.686Z,20.10
2018-09-19T18:29:58.974Z,20.00
2018-09-19T18:32:27.729Z,19.90
2018-09-19T18:34:56.435Z,19.90
2018-09-19T18:37:25.256Z,19.90
2018-09-19T18:39:53.681Z,19.90
2018-09-19T18:42:23.334Z,19.80
2018-09-19T18:44:52.004Z,19.80
2018-09-19T18:47:20.527Z,19.80
2018-09-19T18:49:49.127Z,19.80
2018-09-19T18:52:17.646Z,19.70
2018-09-19T18:54:46.182Z,19.60
2018-09-19T18:57:14.746Z,19.50
2018-09-19T18:59:43.277Z,19.50
2018-09-19T19:02:12.637Z,19.40
2018-09-19T19:04:41.407Z,19.40
2018-09-19T19:07:10.091Z,19.30
2018-09-19T19:09:39.132Z,19.20
2018-09-19T19:12:08.128Z,19.20
2018-09-19T19:14:36.826Z,19.20
2018-09-19T19:17:10.529Z,19.20
2018-09-19T19:19:39.540Z,19.10
2018-09-19T19:22:08.400Z,19.00
2018-09-19T19:24:38.040Z,19.00
2018-09-19T19:27:06.663Z,18.80
2018-09-19T19:29:35.129Z,18.80
2018-09-19T19:32:03.760Z,18.90
2018-09-19T19:34:33.234Z,18.80
2018-09-19T19:37:01.715Z,18.70
2018-09-19T19:39:30.313Z,18.80
2018-09-19T19:41:58.822Z,18.70
2018-09-19T19:44:27.504Z,18.50
2018-09-19T19:46:56.089Z,18.50
2018-09-19T19:49:24.853Z,18.40
2018-09-19T19:51:53.374Z,18.40
2018-09-19T19:54:22.936Z,18.60
2018-09-19T19:56:51.434Z,18.70
2018-09-19T19:59:20.456Z,18.90
2018-09-19T20:01:49.062Z,18.60
2018-09-19T20:04:17.684Z,18.40
2018-09-19T20:06:46.286Z,18.20
2018-09-19T20:09:15.817Z,18.10
2018-09-19T20:11:44.542Z,18.00
2018-09-19T20:14:13.275Z,17.90
2018-09-19T20:16:43.140Z,17.90
2018-09-19T20:19:12.493Z,17.90
2018-09-19T20:21:42.491Z,17.80
2018-09-19T20:24:11.125Z,17.80
2018-09-19T20:26:39.992Z,17.70
2018-09-19T20:29:08.945Z,17.60
2018-09-19T20:31:37.441Z,17.60
2018-09-19T20:34:11.611Z,17.60
2018-09-19T20:36:40.301Z,17.50
2018-09-19T20:39:10.082Z,17.40
2018-09-19T20:41:47.256Z,17.40
2018-09-19T20:44:18.068Z,17.60
2018-09-19T20:46:52.579Z,17.60
2018-09-19T20:49:21.351Z,17.50
2018-09-19T20:51:50.407Z,17.40
2018-09-19T20:54:19.232Z,17.30
2018-09-19T20:56:48.702Z,17.20
2018-09-19T20:59:18.030Z,17.20
2018-09-19T21:01:46.612Z,17.10
2018-09-19T21:04:16.666Z,17.10
2018-09-19T21:06:48.450Z,17.00
2018-09-19T21:09:17.251Z,17.00
2018-09-19T21:11:45.880Z,17.00
2018-09-19T21:14:14.698Z,16.90
2018-09-19T21:16:43.448Z,16.90
2018-09-19T21:19:12.237Z,16.90
2018-09-19T21:21:41.873Z,16.80
2018-09-19T21:24:10.512Z,16.80
2018-09-19T21:26:39.262Z,16.80
2018-09-19T21:29:08.105Z,16.70
2018-09-19T21:31:37.961Z,16.70
2018-09-19T21:34:06.719Z,16.60
2018-09-19T21:36:36.311Z,16.60
2018-09-19T21:39:08.085Z,16.50
2018-09-19T21:41:36.863Z,16.40
2018-09-19T21:44:05.729Z,16.40
2018-09-19T21:46:34.435Z,16.40
2018-09-19T21:49:03.701Z,16.30
2018-09-19T21:51:32.616Z,16.30
2018-09-19T21:54:05.677Z,16.30
2018-09-19T21:56:34.442Z,16.30
2018-09-19T21:59:03.794Z,16.20
2018-09-19T22:01:37.963Z,16.10
2018-09-19T22:04:07.148Z,16.10
2018-09-19T22:06:35.846Z,16.10
2018-09-19T22:09:07.194Z,16.00
2018-09-19T22:11:35.866Z,16.00
2018-09-19T22:14:05.239Z,16.00
2018-09-19T22:16:34.171Z,15.90
2018-09-19T22:19:02.877Z,15.90
2018-09-19T22:21:31.688Z,15.90
2018-09-19T22:24:00.637Z,15.90
2018-09-19T22:26:29.664Z,15.80
2018-09-19T22:29:03.139Z,15.80
2018-09-19T22:31:40.900Z,15.70
2018-09-19T22:34:09.959Z,15.60
2018-09-19T22:36:38.686Z,15.60
2018-09-19T22:39:08.851Z,15.60
2018-09-19T22:41:37.750Z,15.60
2018-09-19T22:44:06.735Z,15.50
2018-09-19T22:46:36.138Z,15.50
2018-09-19T22:49:04.645Z,15.50
2018-09-19T22:51:33.734Z,15.50
2018-09-19T22:54:02.393Z,15.40
2018-09-19T22:56:31.124Z,15.50
2018-09-19T22:58:59.910Z,15.50
2018-09-19T23:01:28.522Z,15.60
2018-09-19T23:03:57.082Z,15.40
2018-09-19T23:06:25.877Z,15.30
2018-09-19T23:08:54.494Z,15.30
2018-09-19T23:11:23.398Z,15.20
2018-09-19T23:13:52.370Z,15.10
2018-09-19T23:16:21.158Z,15.10
2018-09-19T23:18:49.965Z,15.00
2018-09-19T23:21:18.999Z,15.00
2018-09-19T23:23:48.304Z,15.00
2018-09-19T23:26:16.920Z,15.00
2018-09-19T23:28:46.469Z,15.00
2018-09-19T23:31:15.223Z,15.00
2018-09-19T23:33:43.825Z,15.00
2018-09-19T23:36:12.453Z,14.90
2018-09-19T23:38:41.052Z,14.90
2018-09-19T23:41:09.741Z,14.80
2018-09-19T23:43:38.542Z,14.80
2018-09-19T23:46:07.300Z,14.80
2018-09-19T23:48:35.885Z,14.80
2018-09-19T23:51:04.506Z,14.80
2018-09-19T23:53:33.129Z,14.70
2018-09-19T23:56:02.003Z,14.70
2018-09-19T23:58:30.726Z,14.70
